createdAt,value
2019-03-15T00:02:07.276Z,5.31
2019-03-15T00:04:40.063Z,5.32
2019-03-15T00:07:10.211Z,5.32
2019-03-15T00:09:40.776Z,5.33
2019-03-15T00:12:11.382Z,5.33
2019-03-15T00:14:42.002Z,5.38
2019-03-15T00:17:12.573Z,5.39
2019-03-15T00:19:43.216Z,5.42
2019-03-15T00:22:13.716Z,5.46
2019-03-15T00:24:44.819Z,5.50
2019-03-15T00:27:15.446Z,5.52
2019-03-15T00:29:46.035Z,5.55
2019-03-15T00:32:16.904Z,5.59
2019-03-15T00:34:47.508Z,5.62
2019-03-15T00:37:18.092Z,5.58
2019-03-15T00:39:49.716Z,5.64
2019-03-15T00:42:20.264Z,5.69
2019-03-15T00:44:50.860Z,5.75
2019-03-15T00:47:26.013Z,5.78
2019-03-15T00:49:56.663Z,5.81
2019-03-15T00:52:27.248Z,5.83
2019-03-15T00:54:57.855Z,5.86
2019-03-15T00:57:28.432Z,5.85
2019-03-15T00:59:59.097Z,5.87
2019-03-15T01:02:29.685Z,5.88
2019-03-15T01:05:00.423Z,5.91
2019-03-15T01:07:31.031Z,5.93
2019-03-15T01:10:01.607Z,5.95
2019-03-15T01:12:32.133Z,5.98
2019-03-15T01:15:02.792Z,5.99
2019-03-15T01:17:33.318Z,5.99
2019-03-15T01:20:04.030Z,6.01
2019-03-15T01:22:36.264Z,5.98
2019-03-15T01:25:07.021Z,5.93
2019-03-15T01:27:37.639Z,5.88
2019-03-15T01:30:08.739Z,5.88
2019-03-15T01:32:40.429Z,5.86
2019-03-15T01:35:10.982Z,5.85
2019-03-15T01:37:44.391Z,5.81
2019-03-15T01:40:14.931Z,5.77
2019-03-15T01:42:45.499Z,5.78
2019-03-15T01:45:18.004Z,5.78
2019-03-15T01:47:48.499Z,5.76
2019-03-15T01:50:19.074Z,5.76
2019-03-15T01:52:49.620Z,5.75
2019-03-15T01:55:20.251Z,5.74
2019-03-15T01:57:50.791Z,5.73
2019-03-15T02:00:21.462Z,5.73
2019-03-15T02:02:52.018Z,5.73
2019-03-15T02:05:22.605Z,5.74
2019-03-15T02:07:53.206Z,5.75
2019-03-15T02:10:25.581Z,5.74
2019-03-15T02:12:56.151Z,5.77
2019-03-15T02:15:26.711Z,5.80
2019-03-15T02:17:57.295Z,5.83
2019-03-15T02:20:27.895Z,5.85
2019-03-15T02:22:58.572Z,5.88
2019-03-15T02:25:29.137Z,5.90
2019-03-15T02:28:00.754Z,5.90
2019-03-15T02:30:31.381Z,5.91
2019-03-15T02:33:01.933Z,5.96
2019-03-15T02:35:32.563Z,5.98
2019-03-15T02:38:03.147Z,6.01
2019-03-15T02:40:33.691Z,6.04
2019-03-15T02:43:04.244Z,6.04
2019-03-15T02:45:34.858Z,6.04
2019-03-15T02:48:05.406Z,6.07
2019-03-15T02:50:36.015Z,6.11
2019-03-15T02:53:06.636Z,6.13
2019-03-15T02:55:37.222Z,6.14
2019-03-15T02:58:07.797Z,6.17
2019-03-15T03:00:41.167Z,6.17
2019-03-15T03:03:11.940Z,6.21
2019-03-15T03:05:42.502Z,6.22
2019-03-15T03:08:14.596Z,6.24
2019-03-15T03:10:45.184Z,6.25
2019-03-15T03:13:15.755Z,6.28
2019-03-15T03:15:46.353Z,6.31
2019-03-15T03:18:16.916Z,6.31
2019-03-15T03:20:48.268Z,6.35
2019-03-15T03:23:19.065Z,6.35
2019-03-15T03:25:49.667Z,6.37
2019-03-15T03:28:20.258Z,6.37
2019-03-15T03:30:50.852Z,6.41
2019-03-15T03:33:21.389Z,6.43
2019-03-15T03:35:51.975Z,6.45
2019-03-15T03:38:22.573Z,6.43
2019-03-15T03:40:53.201Z,6.47
2019-03-15T03:43:23.709Z,6.47
2019-03-15T03:45:54.350Z,6.50
2019-03-15T03:48:24.978Z,6.51
2019-03-15T03:50:55.597Z,6.55
2019-03-15T03:53:26.118Z,6.57
2019-03-15T03:55:56.696Z,6.59
2019-03-15T03:58:27.248Z,6.63
2019-03-15T04:00:57.827Z,6.65
2019-03-15T04:03:28.357Z,6.66
2019-03-15T04:05:58.927Z,6.68
2019-03-15T04:08:29.464Z,6.71
2019-03-15T04:11:00.065Z,6.72
2019-03-15T04:13:30.609Z,6.74
2019-03-15T04:16:01.282Z,6.75
2019-03-15T04:18:31.868Z,6.75
2019-03-15T04:21:02.512Z,6.77
2019-03-15T04:23:33.019Z,6.79
2019-03-15T04:26:03.712Z,6.81
2019-03-15T04:28:35.876Z,6.84
2019-03-15T04:31:06.458Z,6.86
2019-03-15T04:33:37.003Z,6.88
2019-03-15T04:36:07.579Z,6.89
2019-03-15T04:38:38.200Z,6.89
2019-03-15T04:41:08.793Z,6.89
2019-03-15T04:43:39.307Z,6.89
2019-03-15T04:46:09.999Z,6.88
2019-03-15T04:48:40.549Z,6.89
2019-03-15T04:51:11.157Z,6.90
2019-03-15T04:53:41.732Z,6.90
2019-03-15T04:56:12.355Z,6.92
2019-03-15T04:58:42.883Z,6.93
2019-03-15T05:01:13.512Z,6.95
2019-03-15T05:03:46.077Z,6.98
2019-03-15T05:06:16.701Z,6.99
2019-03-15T05:08:47.274Z,6.99
2019-03-15T05:11:18.971Z,7.01
2019-03-15T05:13:49.558Z,7.05
2019-03-15T05:16:21.293Z,7.04
2019-03-15T05:18:51.811Z,7.04
2019-03-15T05:21:22.393Z,7.04
2019-03-15T05:23:52.973Z,7.06
2019-03-15T05:26:23.598Z,7.07
2019-03-15T05:28:54.188Z,7.04
2019-03-15T05:31:24.803Z,7.08
2019-03-15T05:33:58.437Z,7.07
2019-03-15T05:36:29.093Z,7.08
2019-03-15T05:38:59.654Z,7.07
2019-03-15T05:41:30.343Z,7.06
2019-03-15T05:44:00.895Z,7.09
2019-03-15T05:46:31.503Z,7.07
2019-03-15T05:49:02.107Z,7.06
2019-03-15T05:51:32.755Z,7.08
2019-03-15T05:54:03.329Z,7.06
2019-03-15T05:56:33.972Z,7.09
2019-03-15T05:59:04.540Z,7.09
2019-03-15T06:01:35.144Z,7.13
2019-03-15T06:04:05.742Z,7.11
2019-03-15T06:06:36.373Z,7.12
2019-03-15T06:09:07.736Z,7.11
2019-03-15T06:11:38.334Z,7.13
2019-03-15T06:14:08.969Z,7.17
2019-03-15T06:16:39.609Z,7.15
2019-03-15T06:19:13.107Z,7.17
2019-03-15T06:21:43.706Z,7.19
2019-03-15T06:24:14.234Z,7.21
2019-03-15T06:26:44.826Z,7.22
2019-03-15T06:29:15.395Z,7.25
2019-03-15T06:31:46.043Z,7.26
2019-03-15T06:34:16.640Z,7.22
2019-03-15T06:36:48.299Z,7.27
2019-03-15T06:39:18.943Z,7.28
2019-03-15T06:41:49.578Z,7.29
2019-03-15T06:44:20.106Z,7.29
2019-03-15T06:46:50.676Z,7.30
2019-03-15T06:49:21.373Z,7.33
2019-03-15T06:51:52.062Z,7.35
2019-03-15T06:54:22.649Z,7.36
2019-03-15T06:56:53.263Z,7.39
2019-03-15T06:59:23.876Z,7.41
2019-03-15T07:01:54.437Z,7.44
2019-03-15T07:04:25.035Z,7.47
2019-03-15T07:06:55.674Z,7.43
2019-03-15T07:09:26.212Z,7.46
2019-03-15T07:12:08.833Z,7.48
2019-03-15T07:14:32.508Z,7.46
2019-03-15T07:17:03.214Z,7.49
2019-03-15T07:19:33.765Z,7.52
2019-03-15T07:22:04.361Z,7.54
2019-03-15T07:24:34.907Z,7.56
2019-03-15T07:27:12.746Z,7.56
2019-03-15T07:29:39.897Z,7.55
2019-03-15T07:32:10.481Z,7.62
2019-03-15T07:34:41.610Z,7.66
2019-03-15T07:37:12.387Z,7.64
2019-03-15T07:39:42.932Z,7.70
2019-03-15T07:42:13.637Z,7.75
2019-03-15T07:44:44.172Z,7.77
2019-03-15T07:47:15.178Z,7.78
2019-03-15T07:49:45.720Z,7.77
2019-03-15T07:52:17.091Z,7.82
2019-03-15T07:54:47.645Z,7.86
2019-03-15T07:57:18.233Z,7.87
2019-03-15T07:59:49.910Z,7.91
2019-03-15T08:02:22.313Z,7.93
2019-03-15T08:04:52.914Z,7.97
2019-03-15T08:07:35.483Z,8.00
2019-03-15T08:09:55.799Z,8.06
2019-03-15T08:12:26.427Z,8.09
2019-03-15T08:14:57.023Z,8.13
2019-03-15T08:17:27.628Z,8.19
2019-03-15T08:19:58.218Z,8.22
2019-03-15T08:22:28.819Z,8.29
2019-03-15T08:24:59.437Z,8.31
2019-03-15T08:27:30.021Z,8.33
2019-03-15T08:30:00.605Z,8.36
2019-03-15T08:32:31.193Z,8.40
2019-03-15T08:35:04.168Z,8.45
2019-03-15T08:37:35.019Z,8.52
2019-03-15T08:40:06.267Z,8.55
2019-03-15T08:42:36.992Z,8.55
2019-03-15T08:45:11.016Z,8.62
2019-03-15T08:47:41.689Z,8.66
2019-03-15T08:50:15.501Z,8.73
2019-03-15T08:52:46.392Z,8.80
2019-03-15T08:55:16.982Z,8.87
2019-03-15T08:57:47.593Z,8.91
2019-03-15T09:00:18.661Z,8.96
2019-03-15T09:02:49.320Z,9.05
2019-03-15T09:05:19.886Z,9.14
2019-03-15T09:07:50.544Z,9.26
2019-03-15T09:10:23.792Z,9.39
2019-03-15T09:12:53.460Z,9.53
2019-03-15T09:15:25.833Z,9.66
2019-03-15T09:17:57.684Z,9.73
2019-03-15T09:20:30.449Z,9.83
2019-03-15T09:23:00.670Z,9.89
2019-03-15T09:25:31.254Z,10.02
2019-03-15T09:28:01.874Z,10.09
2019-03-15T09:30:32.420Z,10.16
2019-03-15T09:33:03.694Z,10.21
2019-03-15T09:35:34.287Z,10.30
2019-03-15T09:38:04.961Z,10.35
2019-03-15T09:40:35.510Z,10.42
2019-03-15T09:43:06.165Z,10.54
2019-03-15T09:45:36.829Z,10.57
2019-03-15T09:48:07.464Z,10.63
2019-03-15T09:50:50.517Z,10.66
2019-03-15T09:53:10.452Z,10.69
2019-03-15T09:55:41.033Z,10.75
2019-03-15T09:58:11.681Z,10.78
2019-03-15T10:00:45.488Z,10.80
2019-03-15T10:03:22.083Z,10.83
2019-03-15T10:05:48.436Z,10.90
2019-03-15T10:08:19.089Z,10.94
2019-03-15T10:10:49.628Z,10.98
2019-03-15T10:13:20.253Z,11.05
2019-03-15T10:15:50.870Z,11.08
2019-03-15T10:18:21.902Z,11.10
2019-03-15T10:20:52.462Z,11.15
2019-03-15T10:23:23.062Z,11.11
2019-03-15T10:25:53.655Z,11.15
2019-03-15T10:28:24.287Z,11.23
2019-03-15T10:30:54.920Z,11.28
2019-03-15T10:33:26.745Z,11.31
2019-03-15T10:35:57.339Z,11.39
2019-03-15T10:38:27.951Z,11.42
2019-03-15T10:41:01.145Z,11.44
2019-03-15T10:43:30.932Z,11.49
2019-03-15T10:46:01.530Z,11.51
2019-03-15T10:48:32.207Z,11.58
2019-03-15T10:51:02.753Z,11.56
2019-03-15T10:53:33.407Z,11.55
2019-03-15T10:56:04.029Z,11.60
2019-03-15T10:58:34.649Z,11.60
2019-03-15T11:01:05.676Z,11.55
2019-03-15T11:03:36.298Z,11.54
2019-03-15T11:06:06.873Z,11.59
2019-03-15T11:08:37.490Z,11.63
2019-03-15T11:11:08.056Z,11.66
2019-03-15T11:13:38.720Z,11.63
2019-03-15T11:16:09.305Z,11.62
2019-03-15T11:18:39.966Z,11.63
2019-03-15T11:21:10.517Z,11.64
2019-03-15T11:23:41.097Z,11.69
2019-03-15T11:26:14.000Z,11.72
2019-03-15T11:28:44.066Z,11.73
2019-03-15T11:31:14.628Z,11.72
2019-03-15T11:33:47.362Z,11.77
2019-03-15T11:36:17.578Z,11.73
2019-03-15T11:38:48.255Z,11.73
2019-03-15T11:41:18.842Z,11.76
2019-03-15T11:43:49.510Z,11.75
2019-03-15T11:46:20.037Z,11.79
2019-03-15T11:48:50.717Z,11.77
2019-03-15T11:51:22.784Z,11.80
2019-03-15T11:53:53.456Z,11.82
2019-03-15T11:56:27.212Z,11.79
2019-03-15T11:58:56.445Z,11.78
2019-03-15T12:01:27.029Z,11.76
2019-03-15T12:03:57.647Z,11.79
2019-03-15T12:06:29.386Z,11.79
2019-03-15T12:09:01.393Z,11.79
2019-03-15T12:11:31.986Z,11.83
2019-03-15T12:14:02.663Z,11.82
2019-03-15T12:16:33.225Z,11.81
2019-03-15T12:19:08.119Z,11.86
2019-03-15T12:21:38.735Z,11.89
2019-03-15T12:24:09.389Z,11.96
2019-03-15T12:26:40.818Z,11.96
2019-03-15T12:29:11.776Z,12.00
2019-03-15T12:31:44.623Z,12.01
2019-03-15T12:34:15.292Z,11.97
2019-03-15T12:36:45.849Z,11.86
2019-03-15T12:39:16.466Z,11.89
2019-03-15T12:41:47.118Z,11.96
2019-03-15T12:44:17.743Z,11.96
2019-03-15T12:46:48.344Z,11.97
2019-03-15T12:49:18.988Z,11.99
2019-03-15T12:51:49.606Z,11.95
2019-03-15T12:54:20.194Z,11.88
2019-03-15T12:56:53.916Z,11.86
2019-03-15T12:59:23.056Z,11.87
2019-03-15T13:01:55.211Z,11.87
2019-03-15T13:04:28.742Z,11.88
2019-03-15T13:06:59.273Z,11.87
2019-03-15T13:09:29.908Z,11.93
2019-03-15T13:12:01.933Z,11.92
2019-03-15T13:14:33.717Z,11.95
2019-03-15T13:17:04.286Z,11.99
2019-03-15T13:19:34.962Z,11.99
2019-03-15T13:22:05.575Z,12.00
2019-03-15T13:24:36.233Z,12.04
2019-03-15T13:27:07.894Z,12.07
2019-03-15T13:29:38.844Z,12.10
2019-03-15T13:32:12.691Z,12.11
2019-03-15T13:34:43.359Z,12.10
2019-03-15T13:37:13.937Z,12.12
2019-03-15T13:39:44.545Z,12.20
2019-03-15T13:42:15.181Z,12.28
2019-03-15T13:44:45.797Z,12.27
2019-03-15T13:47:16.422Z,12.28
2019-03-15T13:49:50.171Z,12.37
2019-03-15T13:52:21.021Z,12.28
2019-03-15T13:54:51.616Z,12.32
2019-03-15T13:57:22.169Z,12.40
2019-03-15T13:59:52.807Z,12.43
2019-03-15T14:02:23.463Z,12.41
2019-03-15T14:04:54.081Z,12.42
2019-03-15T14:07:24.699Z,12.38
2019-03-15T14:09:55.385Z,12.40
2019-03-15T14:12:25.994Z,12.52
2019-03-15T14:14:56.618Z,12.51
2019-03-15T14:17:29.818Z,12.55
2019-03-15T14:20:00.542Z,12.67
2019-03-15T14:22:31.186Z,12.77
2019-03-15T14:25:01.834Z,12.80
2019-03-15T14:27:37.383Z,12.75
2019-03-15T14:30:04.813Z,12.69
2019-03-15T14:32:35.444Z,12.66
2019-03-15T14:35:06.161Z,12.57
2019-03-15T14:37:36.878Z,12.63
2019-03-15T14:40:07.813Z,12.63
2019-03-15T14:42:40.354Z,12.46
2019-03-15T14:45:11.640Z,12.48
2019-03-15T14:47:42.287Z,12.41
2019-03-15T14:50:14.907Z,12.41
2019-03-15T14:52:47.160Z,12.49
2019-03-15T14:55:17.852Z,12.43
2019-03-15T14:57:53.166Z,12.45
2019-03-15T15:00:20.797Z,12.47
2019-03-15T15:02:51.421Z,12.46
2019-03-15T15:05:22.073Z,12.45
2019-03-15T15:07:52.665Z,12.38
2019-03-15T15:10:23.295Z,12.43
2019-03-15T15:12:53.977Z,12.40
2019-03-15T15:15:24.610Z,12.33
2019-03-15T15:17:55.218Z,12.37
2019-03-15T15:20:25.862Z,12.40
2019-03-15T15:22:56.420Z,12.31
2019-03-15T15:25:27.105Z,12.34
2019-03-15T15:28:04.381Z,12.37
2019-03-15T15:30:30.111Z,12.38
2019-03-15T15:33:00.661Z,12.28
2019-03-15T15:35:31.289Z,12.35
2019-03-15T15:38:01.871Z,12.36
2019-03-15T15:40:32.540Z,12.30
2019-03-15T15:43:04.542Z,12.23
2019-03-15T15:45:35.196Z,12.25
2019-03-15T15:48:05.879Z,12.23
2019-03-15T15:50:36.488Z,12.27
2019-03-15T15:53:07.135Z,12.26
2019-03-15T15:55:37.703Z,12.27
2019-03-15T15:58:17.963Z,12.30
2019-03-15T16:00:43.499Z,12.30
2019-03-15T16:03:21.961Z,12.31
2019-03-15T16:05:52.615Z,12.21
2019-03-15T16:08:23.209Z,12.18
2019-03-15T16:10:53.942Z,12.18
2019-03-15T16:13:24.537Z,12.16
2019-03-15T16:15:55.236Z,12.22
2019-03-15T16:18:26.951Z,12.20
2019-03-15T16:20:58.542Z,12.16
2019-03-15T16:23:30.486Z,12.20
2019-03-15T16:26:01.514Z,12.15
2019-03-15T16:28:36.142Z,12.06
2019-03-15T16:31:06.617Z,12.08
2019-03-15T16:33:37.246Z,12.09
2019-03-15T16:36:07.917Z,12.07
2019-03-15T16:38:38.537Z,11.98
2019-03-15T16:41:09.233Z,11.94
2019-03-15T16:43:39.813Z,11.96
2019-03-15T16:46:10.437Z,11.84
2019-03-15T16:48:42.364Z,11.85
2019-03-15T16:51:19.437Z,11.85
2019-03-15T16:53:45.381Z,11.83
2019-03-15T16:56:16.062Z,11.83
2019-03-15T16:58:46.647Z,11.74
2019-03-15T17:01:18.928Z,11.80
2019-03-15T17:03:50.606Z,11.77
2019-03-15T17:06:22.864Z,11.80
2019-03-15T17:08:55.979Z,11.78
2019-03-15T17:11:26.726Z,11.83
2019-03-15T17:13:57.385Z,11.82
2019-03-15T17:16:28.170Z,11.77
2019-03-15T17:18:58.861Z,11.76
2019-03-15T17:21:29.443Z,11.75
2019-03-15T17:24:00.093Z,11.73
2019-03-15T17:26:30.765Z,11.72
2019-03-15T17:29:01.427Z,11.68
2019-03-15T17:31:32.102Z,11.69
2019-03-15T17:34:09.852Z,11.69
2019-03-15T17:36:40.540Z,11.69
2019-03-15T17:39:11.098Z,11.70
2019-03-15T17:41:41.748Z,11.69
2019-03-15T17:44:12.386Z,11.69
2019-03-15T17:46:42.977Z,11.61
2019-03-15T17:49:13.607Z,11.63
2019-03-15T17:51:44.184Z,11.68
2019-03-15T17:54:14.879Z,11.68
2019-03-15T17:56:45.573Z,11.69
2019-03-15T17:59:16.122Z,11.67
2019-03-15T18:01:48.916Z,11.70
2019-03-15T18:04:19.549Z,11.70
2019-03-15T18:06:50.207Z,11.72
2019-03-15T18:09:24.986Z,11.73
2019-03-15T18:11:58.385Z,11.74
2019-03-15T18:14:29.097Z,11.72
2019-03-15T18:16:59.659Z,11.73
2019-03-15T18:19:30.300Z,11.75
2019-03-15T18:22:00.871Z,11.75
2019-03-15T18:24:31.531Z,11.78
2019-03-15T18:27:02.306Z,11.76
2019-03-15T18:29:32.998Z,11.77
2019-03-15T18:32:06.100Z,11.77
2019-03-15T18:34:37.776Z,11.73
2019-03-15T18:37:12.539Z,11.72
2019-03-15T18:39:43.185Z,11.74
2019-03-15T18:42:13.834Z,11.74
2019-03-15T18:44:44.478Z,11.69
2019-03-15T18:47:15.046Z,11.67
2019-03-15T18:49:45.963Z,11.67
2019-03-15T18:52:16.591Z,11.63
2019-03-15T18:54:47.242Z,11.67
2019-03-15T18:57:17.762Z,11.68
2019-03-15T18:59:48.434Z,11.63
2019-03-15T19:02:19.034Z,11.67
2019-03-15T19:04:49.647Z,11.67
2019-03-15T19:07:20.443Z,11.66
2019-03-15T19:09:51.768Z,11.60
2019-03-15T19:12:25.530Z,11.61
2019-03-15T19:14:56.137Z,11.60
2019-03-15T19:17:26.788Z,11.63
2019-03-15T19:19:57.485Z,11.63
2019-03-15T19:22:28.082Z,11.65
2019-03-15T19:24:59.394Z,11.66
2019-03-15T19:27:29.993Z,11.63
2019-03-15T19:30:00.659Z,11.59
2019-03-15T19:32:33.540Z,11.60
2019-03-15T19:35:04.275Z,11.60
2019-03-15T19:37:34.873Z,11.59
2019-03-15T19:40:05.934Z,11.61
2019-03-15T19:42:37.530Z,11.63
2019-03-15T19:45:10.404Z,11.63
2019-03-15T19:47:44.114Z,11.65
2019-03-15T19:50:15.843Z,11.63
2019-03-15T19:52:46.524Z,11.59
2019-03-15T19:55:18.204Z,11.56
2019-03-15T19:57:48.796Z,11.56
2019-03-15T20:00:19.178Z,11.56
2019-03-15T20:02:49.895Z,11.60
2019-03-15T20:05:24.461Z,11.58
2019-03-15T20:07:55.058Z,11.56
2019-03-15T20:10:28.183Z,11.53
2019-03-15T20:13:02.355Z,11.52
2019-03-15T20:15:33.567Z,11.55
2019-03-15T20:18:04.924Z,11.53
2019-03-15T20:20:35.599Z,11.50
2019-03-15T20:23:09.288Z,11.48
2019-03-15T20:25:40.033Z,11.51
2019-03-15T20:28:10.742Z,11.52
2019-03-15T20:30:51.377Z,11.51
2019-03-15T20:33:15.029Z,11.52
2019-03-15T20:35:51.931Z,11.47
2019-03-15T20:38:21.955Z,11.50
2019-03-15T20:40:59.726Z,11.49
2019-03-15T20:43:33.501Z,11.43
2019-03-15T20:46:11.335Z,11.43
2019-03-15T20:48:41.977Z,11.42
2019-03-15T20:51:12.663Z,11.45
2019-03-15T20:53:43.930Z,11.44
2019-03-15T20:56:15.582Z,11.46
2019-03-15T20:58:46.256Z,11.44
2019-03-15T21:01:16.928Z,11.42
2019-03-15T21:03:56.006Z,11.40
2019-03-15T21:06:20.070Z,11.43
2019-03-15T21:08:50.695Z,11.43
2019-03-15T21:11:21.605Z,11.41
2019-03-15T21:13:52.269Z,11.40
2019-03-15T21:16:25.317Z,11.41
2019-03-15T21:18:55.891Z,11.40
2019-03-15T21:21:26.519Z,11.38
2019-03-15T21:23:57.118Z,11.38
2019-03-15T21:26:30.767Z,11.36
2019-03-15T21:29:01.579Z,11.35
2019-03-15T21:31:32.296Z,11.36
2019-03-15T21:34:02.846Z,11.32
2019-03-15T21:36:33.511Z,11.34
2019-03-15T21:39:07.855Z,11.34
2019-03-15T21:41:38.493Z,11.32
2019-03-15T21:44:09.065Z,11.32
2019-03-15T21:46:39.691Z,11.34
2019-03-15T21:49:11.955Z,11.35
2019-03-15T21:51:44.076Z,11.31
2019-03-15T21:54:14.624Z,11.33
2019-03-15T21:56:45.252Z,11.33
2019-03-15T21:59:15.867Z,11.33
2019-03-15T22:01:46.547Z,11.34
2019-03-15T22:04:17.104Z,11.32
2019-03-15T22:06:48.580Z,11.31
2019-03-15T22:09:19.191Z,11.32
2019-03-15T22:11:49.827Z,11.33
2019-03-15T22:14:20.384Z,11.30
2019-03-15T22:16:51.026Z,11.32
2019-03-15T22:19:21.604Z,11.33
2019-03-15T22:21:52.258Z,11.33
2019-03-15T22:24:22.872Z,11.31
2019-03-15T22:26:53.505Z,11.30
2019-03-15T22:29:24.095Z,11.27
2019-03-15T22:31:54.670Z,11.29
2019-03-15T22:34:25.276Z,11.31
2019-03-15T22:36:55.920Z,11.32
2019-03-15T22:39:26.504Z,11.32
2019-03-15T22:41:57.306Z,11.32
2019-03-15T22:44:27.912Z,11.29
2019-03-15T22:46:58.598Z,11.30
2019-03-15T22:49:29.175Z,11.32
2019-03-15T22:51:59.893Z,11.31
2019-03-15T22:54:30.422Z,11.32
2019-03-15T22:57:01.052Z,11.30
2019-03-15T22:59:31.660Z,11.31
2019-03-15T23:02:03.253Z,11.32
2019-03-15T23:04:33.800Z,11.31
2019-03-15T23:07:04.434Z,11.33
2019-03-15T23:09:35.055Z,11.32
2019-03-15T23:12:05.757Z,11.32
2019-03-15T23:14:36.288Z,11.32
2019-03-15T23:17:06.896Z,11.32
2019-03-15T23:19:37.505Z,11.30
2019-03-15T23:22:08.196Z,11.29
2019-03-15T23:24:38.800Z,11.24
2019-03-15T23:27:09.364Z,11.27
2019-03-15T23:29:39.951Z,11.23
2019-03-15T23:32:10.566Z,11.24
2019-03-15T23:34:41.136Z,11.25
2019-03-15T23:37:12.711Z,11.27
2019-03-15T23:39:43.288Z,11.24
2019-03-15T23:42:13.884Z,11.21
2019-03-15T23:44:44.424Z,11.22
2019-03-15T23:47:15.057Z,11.25
2019-03-15T23:49:45.635Z,11.25
2019-03-15T23:52:16.268Z,11.21
2019-03-15T23:54:48.623Z,11.17
2019-03-15T23:57:19.128Z,11.14
2019-03-15T23:59:55.604Z,11.18
